Friday, February 23, 2018, 2:55 PM EST
Back to Local

KMMU, Morristown Municipal

Location: Morristown, NJ, United States Lat: 40.8
Local Time: 2:55 PM EST (19:55 GMT) Lon: -74.417
Time Zone: US/Eastern Elev: 187 ft

Show me the last for .
Show Decoded

2018-02-23 13:45 METAR KMMU 231845Z 13003KT 2 1/4SM -RA BKN007 OVC010 04/03 A3049 =
2018-02-23 12:50 METAR KMMU 231750Z 11004KT 5SM BR BKN007 OVC010 03/02 A3052 =
2018-02-23 12:45 METAR KMMU 231745Z 11004KT 5SM BR BKN008 OVC010 03/02 A3052 =
2018-02-23 11:45 METAR KMMU 231645Z 12004KT 5SM -RA BKN008 OVC010 03/02 A3057 =
2018-02-23 10:50 METAR KMMU 231550Z 11007KT 5SM RA BKN008 OVC011 03/02 A3060 =
2018-02-23 09:50 METAR KMMU 231450Z 10006KT 3SM BR BKN008 OVC011 03/02 A3061 =
2018-02-23 09:34 METAR KMMU 231434Z 10004KT 3SM BR BKN009 OVC013 02/01 A3063 =
2018-02-23 08:45 METAR KMMU 231345Z 09006KT 5SM BR OVC011 02/01 A3064 =
2018-02-23 07:45 METAR KMMU 231245Z 08007KT 10SM OVC011 02/01 A3064 =
2018-02-23 06:45 METAR KMMU 231145Z 06006KT 10SM OVC011 02/01 A3064 =
2018-02-23 06:35 METAR KMMU 231135Z AUTO 05005KT 10SM OVC013 02/01 A3063 RMK AO2 =
2018-02-23 06:15 METAR KMMU 231115Z AUTO 05005KT 10SM OVC011 02/01 A3063 RMK AO2 =
2018-02-23 05:55 METAR KMMU 231055Z AUTO 07003KT 10SM BKN013 OVC036 02/01 A3063 RMK AO2 =
2018-02-23 05:35 METAR KMMU 231035Z AUTO 05004KT 10SM OVC011 02/01 A3063 RMK AO2 =
2018-02-23 05:15 METAR KMMU 231015Z AUTO 05004KT 10SM OVC009 02/01 A3064 RMK AO2 =
2018-02-23 04:55 METAR KMMU 230955Z AUTO 04003KT 10SM OVC009 02/01 A3065 RMK AO2 =
2018-02-23 04:35 METAR KMMU 230935Z AUTO 05004KT 10SM OVC009 02/01 A3064 RMK AO2 =
2018-02-23 04:15 METAR KMMU 230915Z AUTO 06004KT 10SM OVC009 02/01 A3065 RMK AO2 =
2018-02-23 03:55 METAR KMMU 230855Z AUTO 00000KT 10SM OVC009 02/01 A3065 RMK AO2 =
2018-02-23 03:35 METAR KMMU 230835Z AUTO 05004KT 10SM OVC009 02/01 A3065 RMK AO2 =
2018-02-23 03:15 METAR KMMU 230815Z AUTO 05003KT 10SM OVC009 02/01 A3064 RMK AO2 =
2018-02-23 02:55 METAR KMMU 230755Z AUTO 07003KT 10SM OVC011 02/01 A3064 RMK AO2 =
2018-02-23 02:35 METAR KMMU 230735Z AUTO 06004KT 10SM OVC011 02/01 A3065 RMK AO2 =
2018-02-23 02:15 METAR KMMU 230715Z AUTO 06006KT 10SM OVC011 02/01 A3066 RMK AO2 =
2018-02-23 01:55 METAR KMMU 230655Z AUTO 05008KT 10SM OVC011 02/01 A3068 RMK AO2 =
2018-02-23 01:35 METAR KMMU 230635Z AUTO 05006KT 10SM OVC011 02/01 A3067 RMK AO2 =
2018-02-23 01:15 METAR KMMU 230615Z AUTO 04006KT 10SM OVC011 02/02 A3067 RMK AO2 =
2018-02-23 00:55 METAR KMMU 230555Z AUTO 05005KT 10SM OVC011 03/02 A3067 RMK AO2 =
2018-02-23 00:35 METAR KMMU 230535Z AUTO 05004KT 10SM OVC011 03/02 A3067 RMK AO2 =
2018-02-23 00:15 METAR KMMU 230515Z AUTO 03005KT 10SM OVC011 03/02 A3067 RMK AO2 =
2018-02-22 23:55 METAR KMMU 230455Z AUTO 04005KT 10SM OVC011 03/02 A3066 RMK AO2 =
2018-02-22 23:35 METAR KMMU 230435Z AUTO 03005KT 10SM OVC013 03/02 A3066 RMK AO2 =
2018-02-22 23:15 METAR KMMU 230415Z AUTO 03005KT 10SM BKN013 OVC019 03/02 A3066 RMK AO2 =
2018-02-22 22:55 METAR KMMU 230355Z AUTO 03005KT 10SM OVC013 03/02 A3066 RMK AO2 =
2018-02-22 22:35 METAR KMMU 230335Z AUTO 02005KT 10SM OVC013 03/02 A3067 RMK AO2 =
2018-02-22 22:15 METAR KMMU 230315Z AUTO 03003KT 10SM OVC013 03/02 A3066 RMK AO2 =
2018-02-22 21:50 METAR KMMU 230250Z 05004KT 10SM OVC015 02/02 A3065 =
2018-02-22 20:50 METAR KMMU 230150Z 05006KT 10SM BKN011 OVC017 03/02 A3066 =
2018-02-22 20:30 METAR KMMU 230130Z 02007KT 7SM BR OVC011 03/02 A3065 =
2018-02-22 20:05 METAR KMMU 230105Z 04006KT 5SM BR OVC008 03/02 A3064 =
2018-02-22 19:50 METAR KMMU 230050Z 05007KT 5SM BR BKN013 OVC020 03/02 A3063 =
2018-02-22 18:51 METAR KMMU 222351Z 07004KT 7SM BR BKN012 OVC026 03/02 A3063 =
2018-02-22 18:45 METAR KMMU 222345Z 06003KT 7SM BR BKN008 BKN021 OVC026 03/02 A3064 =
2018-02-22 17:45 METAR KMMU 222245Z 07008KT 5SM -RA BR OVC007 03/02 A3066 =
2018-02-22 16:45 METAR KMMU 222145Z 04004KT 2SM RA OVC008 03/02 A3064 =
2018-02-22 15:50 METAR KMMU 222050Z 03011G14KT 2SM RA BKN008 BKN013 OVC025 03/03 A3060 =

Support USWX by starting your Amazon purchase here.